createdAt,value
2022-09-09T00:01:09.983Z,7.00
2022-09-09T00:03:17.890Z,6.87
2022-09-09T00:05:24.104Z,7.50
2022-09-09T00:07:29.681Z,7.33
2022-09-09T00:09:35.080Z,6.83
2022-09-09T00:11:43.395Z,6.70
2022-09-09T00:13:48.384Z,7.30
2022-09-09T00:15:58.051Z,7.20
2022-09-09T00:18:04.120Z,7.40
2022-09-09T00:20:13.590Z,6.07
2022-09-09T00:22:18.163Z,7.10
2022-09-09T00:24:27.396Z,7.60
2022-09-09T00:26:33.898Z,7.53
2022-09-09T00:28:53.588Z,6.60
2022-09-09T00:30:56.294Z,7.13
2022-09-09T00:33:01.866Z,7.00
2022-09-09T00:35:06.506Z,7.57
2022-09-09T00:37:11.456Z,7.07
2022-09-09T00:39:33.003Z,7.37
2022-09-09T00:41:42.231Z,7.70
2022-09-09T00:43:44.790Z,7.00
2022-09-09T00:46:09.325Z,8.03
2022-09-09T00:48:12.561Z,7.23
2022-09-09T00:50:26.055Z,7.90
2022-09-09T00:52:35.115Z,7.87
2022-09-09T00:54:42.213Z,7.07
2022-09-09T00:56:47.989Z,7.87
2022-09-09T00:58:57.600Z,7.77
2022-09-09T01:01:03.704Z,8.10
2022-09-09T01:03:21.733Z,8.30
2022-09-09T01:05:30.805Z,7.70
2022-09-09T01:07:35.225Z,8.10
2022-09-09T01:09:44.441Z,8.27
2022-09-09T01:11:54.211Z,8.10
2022-09-09T01:14:01.282Z,8.43
2022-09-09T01:16:06.215Z,7.87
2022-09-09T01:18:11.188Z,8.23
2022-09-09T01:20:17.965Z,7.33
2022-09-09T01:22:24.572Z,7.40
2022-09-09T01:24:31.381Z,8.47
2022-09-09T01:26:36.168Z,7.43
2022-09-09T01:28:39.324Z,8.00
2022-09-09T01:30:42.908Z,6.97
2022-09-09T01:32:46.145Z,8.00
2022-09-09T01:34:48.780Z,7.43
2022-09-09T01:36:54.163Z,7.10
2022-09-09T01:38:56.836Z,7.37
2022-09-09T01:40:59.963Z,7.73
2022-09-09T01:43:04.047Z,7.20
2022-09-09T01:45:08.299Z,7.40
2022-09-09T01:47:11.002Z,6.90
2022-09-09T01:49:13.744Z,8.17
2022-09-09T01:51:16.287Z,6.87
2022-09-09T01:53:19.534Z,7.17
2022-09-09T01:55:25.325Z,6.70
2022-09-09T01:57:29.691Z,8.03
2022-09-09T01:59:43.093Z,7.77
2022-09-09T02:01:51.803Z,7.53
2022-09-09T02:03:55.823Z,8.03
2022-09-09T02:06:03.799Z,7.43
2022-09-09T02:08:08.725Z,7.40
2022-09-09T02:10:13.308Z,6.73
2022-09-09T02:12:18.227Z,7.30
2022-09-09T02:14:24.102Z,6.60
2022-09-09T02:16:29.863Z,7.17
2022-09-09T02:18:35.825Z,6.90
2022-09-09T02:20:38.735Z,6.07
2022-09-09T02:22:42.639Z,6.50
2022-09-09T02:24:47.198Z,7.27
2022-09-09T02:26:52.227Z,7.30
2022-09-09T02:28:56.002Z,7.00
2022-09-09T02:30:59.367Z,7.10
2022-09-09T02:33:04.872Z,6.60
2022-09-09T02:35:09.724Z,6.63
2022-09-09T02:37:12.461Z,7.77
2022-09-09T02:39:15.145Z,7.40
2022-09-09T02:41:18.493Z,6.63
2022-09-09T02:43:21.323Z,6.03
2022-09-09T02:45:26.968Z,7.60
2022-09-09T02:47:32.227Z,7.17
2022-09-09T02:49:41.211Z,6.97
2022-09-09T02:51:48.687Z,6.20
2022-09-09T02:53:54.957Z,6.60
2022-09-09T02:55:59.879Z,6.57
2022-09-09T02:58:02.965Z,7.10
2022-09-09T03:00:06.147Z,6.03
2022-09-09T03:02:12.243Z,5.70
2022-09-09T03:04:15.247Z,6.30
2022-09-09T03:06:19.109Z,6.67
2022-09-09T03:08:21.809Z,6.17
2022-09-09T03:10:24.353Z,6.20
2022-09-09T03:12:27.710Z,6.23
2022-09-09T03:14:31.365Z,5.90
2022-09-09T03:16:35.348Z,6.43
2022-09-09T03:18:37.999Z,6.10
2022-09-09T03:20:43.085Z,5.73
2022-09-09T03:22:46.956Z,6.37
2022-09-09T03:24:49.532Z,5.67
2022-09-09T03:26:52.218Z,5.57
2022-09-09T03:28:55.251Z,5.13
2022-09-09T03:31:00.741Z,5.40
2022-09-09T03:33:03.325Z,5.50
2022-09-09T03:35:06.764Z,5.70
2022-09-09T03:37:09.335Z,5.47
2022-09-09T03:39:13.189Z,5.90
2022-09-09T03:41:15.828Z,4.83
2022-09-09T03:43:18.851Z,5.40
2022-09-09T03:45:21.402Z,5.43
2022-09-09T03:47:23.996Z,5.50
2022-09-09T03:49:27.088Z,5.03
2022-09-09T03:51:30.418Z,5.20
2022-09-09T03:53:34.368Z,5.20
2022-09-09T03:55:38.354Z,5.60
2022-09-09T03:57:40.905Z,5.07
2022-09-09T03:59:43.472Z,4.80
2022-09-09T04:01:46.526Z,5.73
2022-09-09T04:03:49.506Z,4.80
2022-09-09T04:05:52.663Z,5.50
2022-09-09T04:07:55.213Z,5.80
2022-09-09T04:09:58.058Z,5.30
2022-09-09T04:12:01.936Z,4.57
2022-09-09T04:14:06.877Z,5.07
2022-09-09T04:16:11.278Z,4.90
2022-09-09T04:18:17.007Z,4.43
2022-09-09T04:20:23.090Z,4.70
2022-09-09T04:22:25.643Z,5.23
2022-09-09T04:24:30.102Z,5.43
2022-09-09T04:26:33.058Z,4.47
2022-09-09T04:28:37.930Z,4.60
2022-09-09T04:30:41.484Z,4.80
2022-09-09T04:32:44.047Z,4.73
2022-09-09T04:34:48.616Z,4.50
2022-09-09T04:36:52.810Z,4.60
2022-09-09T04:38:55.401Z,4.27
2022-09-09T04:40:58.039Z,5.00
2022-09-09T04:43:01.179Z,5.20
2022-09-09T04:45:05.349Z,4.23
2022-09-09T04:47:07.963Z,4.50
2022-09-09T04:49:32.034Z,4.33
2022-09-09T04:51:34.663Z,4.40
2022-09-09T04:53:37.292Z,4.33
2022-09-09T04:55:39.839Z,4.43
2022-09-09T04:57:42.707Z,3.80
2022-09-09T04:59:46.801Z,3.87
2022-09-09T05:01:51.459Z,3.83
2022-09-09T05:03:54.083Z,4.30
2022-09-09T05:05:57.655Z,3.67
2022-09-09T05:08:03.860Z,3.83
2022-09-09T05:10:06.878Z,4.50
2022-09-09T05:12:10.201Z,3.73
2022-09-09T05:14:13.420Z,3.90
2022-09-09T05:16:16.289Z,3.30
2022-09-09T05:18:20.242Z,3.60
2022-09-09T05:20:23.172Z,3.77
2022-09-09T05:22:25.746Z,3.70
2022-09-09T05:24:28.328Z,3.50
2022-09-09T05:26:32.454Z,3.70
2022-09-09T05:28:36.300Z,3.67
2022-09-09T05:30:39.051Z,3.97
2022-09-09T05:32:41.908Z,3.70
2022-09-09T05:34:46.123Z,3.53
2022-09-09T05:36:48.846Z,3.60
2022-09-09T05:38:51.919Z,4.90
2022-09-09T05:40:54.617Z,3.63
2022-09-09T05:42:57.568Z,4.27
2022-09-09T05:45:00.158Z,4.50
2022-09-09T05:47:02.979Z,4.70
2022-09-09T05:49:06.465Z,4.70
2022-09-09T05:51:11.565Z,4.50
2022-09-09T05:53:14.134Z,4.80
2022-09-09T05:55:17.141Z,4.33
2022-09-09T05:57:20.382Z,5.10
2022-09-09T05:59:24.221Z,4.70
2022-09-09T06:01:27.785Z,4.90
2022-09-09T06:03:30.760Z,5.17
2022-09-09T06:05:33.649Z,4.50
2022-09-09T06:07:38.360Z,4.70
2022-09-09T06:09:40.900Z,4.37
2022-09-09T06:11:44.014Z,5.07
2022-09-09T06:13:46.837Z,4.93
2022-09-09T06:15:53.119Z,4.77
2022-09-09T06:17:57.015Z,4.90
2022-09-09T06:20:00.140Z,5.50
2022-09-09T06:22:02.709Z,4.97
2022-09-09T06:24:08.264Z,4.63
2022-09-09T06:26:12.255Z,4.33
2022-09-09T06:28:15.487Z,4.83
2022-09-09T06:30:19.333Z,4.50
2022-09-09T06:32:21.988Z,5.80
2022-09-09T06:34:24.578Z,6.30
2022-09-09T06:36:29.186Z,4.63
2022-09-09T06:38:31.768Z,4.27
2022-09-09T06:40:36.149Z,5.30
2022-09-09T06:42:39.802Z,4.43
2022-09-09T06:44:42.745Z,4.40
2022-09-09T06:46:45.510Z,4.60
2022-09-09T06:48:48.336Z,4.20
2022-09-09T06:50:51.786Z,4.27
2022-09-09T06:52:54.846Z,4.97
2022-09-09T06:54:59.399Z,4.37
2022-09-09T06:57:20.867Z,5.73
2022-09-09T06:59:27.090Z,4.50
2022-09-09T07:01:31.438Z,5.47
2022-09-09T07:03:34.652Z,4.87
2022-09-09T07:05:37.270Z,4.33
2022-09-09T07:07:40.007Z,11.63
2022-09-09T07:09:43.389Z,4.53
2022-09-09T07:11:46.837Z,4.10
2022-09-09T07:13:50.787Z,4.50
2022-09-09T07:15:53.541Z,5.50
2022-09-09T07:17:56.473Z,4.50
2022-09-09T07:19:59.143Z,4.20
2022-09-09T07:22:03.424Z,4.07
2022-09-09T07:24:08.277Z,4.77
2022-09-09T07:26:11.849Z,4.83
2022-09-09T07:28:14.579Z,4.37
2022-09-09T07:30:24.278Z,10.50
2022-09-09T07:32:31.316Z,5.93
2022-09-09T07:34:34.703Z,4.90
2022-09-09T07:36:38.826Z,4.73
2022-09-09T07:38:41.673Z,5.67
2022-09-09T07:40:44.503Z,4.30
2022-09-09T07:42:48.442Z,4.30
2022-09-09T07:44:51.037Z,4.60
2022-09-09T07:46:54.972Z,5.60
2022-09-09T07:48:59.053Z,5.30
2022-09-09T07:51:08.272Z,5.23
2022-09-09T07:53:10.826Z,5.40
2022-09-09T07:55:13.405Z,5.40
2022-09-09T07:57:16.529Z,5.33
2022-09-09T07:59:19.738Z,5.80
2022-09-09T08:01:23.499Z,5.70
2022-09-09T08:03:27.726Z,4.70
2022-09-09T08:05:31.138Z,6.03
2022-09-09T08:07:33.678Z,6.63
2022-09-09T08:09:36.241Z,6.00
2022-09-09T08:11:39.462Z,6.47
2022-09-09T08:13:42.476Z,6.43
2022-09-09T08:15:45.411Z,5.77
2022-09-09T08:17:48.347Z,7.00
2022-09-09T08:19:52.701Z,5.50
2022-09-09T08:21:55.279Z,6.40
2022-09-09T08:23:58.902Z,6.20
2022-09-09T08:26:06.240Z,6.23
2022-09-09T08:28:10.506Z,6.40
2022-09-09T08:30:14.022Z,6.00
2022-09-09T08:32:17.556Z,6.10
2022-09-09T08:34:20.776Z,7.23
2022-09-09T08:36:26.531Z,8.27
2022-09-09T08:38:29.546Z,5.97
2022-09-09T08:40:34.453Z,7.50
2022-09-09T08:42:40.172Z,6.70
2022-09-09T08:45:01.421Z,7.20
2022-09-09T08:47:07.355Z,6.40
2022-09-09T08:49:26.737Z,7.50
2022-09-09T08:51:31.841Z,6.67
2022-09-09T08:53:44.679Z,7.63
2022-09-09T08:55:49.302Z,7.23
2022-09-09T08:57:52.526Z,6.63
2022-09-09T08:59:56.220Z,7.80
2022-09-09T09:02:03.870Z,7.10
2022-09-09T09:04:09.808Z,6.53
2022-09-09T09:06:24.803Z,6.40
2022-09-09T09:08:30.885Z,6.90
2022-09-09T09:10:42.826Z,7.20
2022-09-09T09:12:45.620Z,7.17
2022-09-09T09:14:48.745Z,6.87
2022-09-09T09:16:53.453Z,8.10
2022-09-09T09:18:56.649Z,7.17
2022-09-09T09:21:02.506Z,7.47
2022-09-09T09:23:05.122Z,9.47
2022-09-09T09:25:11.968Z,9.87
2022-09-09T09:27:15.960Z,16.90
2022-09-09T09:29:19.807Z,13.30
2022-09-09T09:31:23.025Z,11.00
2022-09-09T09:33:28.713Z,11.60
2022-09-09T09:35:31.335Z,11.10
2022-09-09T09:37:36.288Z,13.80
2022-09-09T09:42:14.980Z,21.67
2022-09-09T09:44:25.664Z,12.77
2022-09-09T09:46:28.719Z,14.90
2022-09-09T09:48:31.876Z,12.47
2022-09-09T09:50:35.577Z,10.90
2022-09-09T09:52:38.138Z,11.10
2022-09-09T09:54:41.185Z,13.93
2022-09-09T09:56:43.892Z,13.23
2022-09-09T09:58:54.170Z,12.80
2022-09-09T10:00:56.785Z,13.90
2022-09-09T10:03:01.519Z,10.47
2022-09-09T10:05:05.183Z,12.60
2022-09-09T10:07:12.470Z,11.27
2022-09-09T10:09:24.348Z,9.70
2022-09-09T10:11:32.576Z,12.20
2022-09-09T10:13:40.064Z,12.97
2022-09-09T10:15:46.634Z,11.17
2022-09-09T10:17:56.173Z,11.23
2022-09-09T10:20:07.351Z,11.47
2022-09-09T10:22:18.330Z,10.60
2022-09-09T10:24:36.286Z,11.10
2022-09-09T10:26:42.559Z,10.97
2022-09-09T10:28:56.541Z,11.50
2022-09-09T10:31:06.245Z,11.63
2022-09-09T10:33:11.394Z,11.20
2022-09-09T10:35:16.962Z,10.80
2022-09-09T10:37:24.501Z,14.17
2022-09-09T10:39:39.121Z,10.33
2022-09-09T10:41:48.385Z,11.13
2022-09-09T10:44:01.978Z,11.10
2022-09-09T10:46:08.530Z,9.67
2022-09-09T10:48:19.093Z,9.87
2022-09-09T10:50:59.881Z,9.20
2022-09-09T10:53:00.621Z,9.57
2022-09-09T10:55:05.299Z,9.97
2022-09-09T10:57:11.213Z,9.37
2022-09-09T10:59:15.905Z,9.50
2022-09-09T11:01:21.290Z,8.73
2022-09-09T11:03:24.647Z,9.90
2022-09-09T11:05:30.235Z,10.10
2022-09-09T11:07:37.621Z,10.20
2022-09-09T11:09:42.472Z,9.00
2022-09-09T11:11:48.081Z,8.77
2022-09-09T11:13:55.238Z,9.00
2022-09-09T11:16:00.992Z,9.63
2022-09-09T11:18:07.051Z,9.83
2022-09-09T11:20:13.666Z,8.93
2022-09-09T11:22:19.766Z,8.73
2022-09-09T11:24:24.524Z,9.40
2022-09-09T11:26:32.630Z,9.97
2022-09-09T11:28:43.530Z,8.80
2022-09-09T11:30:56.692Z,9.57
2022-09-09T11:33:18.453Z,9.50
2022-09-09T11:35:28.566Z,8.37
2022-09-09T11:37:45.167Z,10.07
2022-09-09T11:40:00.249Z,8.53
2022-09-09T11:42:08.601Z,9.53
2022-09-09T11:44:12.660Z,8.13
2022-09-09T11:46:16.236Z,10.50
2022-09-09T11:48:27.543Z,8.27
2022-09-09T11:50:32.123Z,8.40
2022-09-09T11:52:39.912Z,9.13
2022-09-09T11:54:50.859Z,8.93
2022-09-09T11:56:54.059Z,8.97
2022-09-09T11:58:58.726Z,8.30
2022-09-09T12:01:01.820Z,8.67
2022-09-09T12:03:05.818Z,8.50
2022-09-09T12:05:12.670Z,9.07
2022-09-09T12:07:27.949Z,8.50
2022-09-09T12:09:34.681Z,8.90
2022-09-09T12:11:38.207Z,8.27
2022-09-09T12:13:43.102Z,9.03
2022-09-09T12:15:49.393Z,8.97
2022-09-09T12:17:52.771Z,8.63
2022-09-09T12:20:06.610Z,9.13
2022-09-09T12:22:18.423Z,9.03
2022-09-09T12:24:23.374Z,7.60
2022-09-09T12:26:33.303Z,8.57
2022-09-09T12:28:43.932Z,9.10
2022-09-09T12:30:51.494Z,8.13
2022-09-09T12:33:03.387Z,11.70
2022-09-09T12:35:11.188Z,9.33
2022-09-09T12:37:20.445Z,7.50
2022-09-09T12:39:34.362Z,8.67
2022-09-09T12:41:37.076Z,8.10
2022-09-09T12:43:39.674Z,8.93
2022-09-09T12:45:42.297Z,8.47
2022-09-09T12:47:48.133Z,8.53
2022-09-09T12:49:50.861Z,8.20
2022-09-09T12:51:53.493Z,7.80
2022-09-09T12:53:57.502Z,8.10
2022-09-09T12:56:01.240Z,8.47
2022-09-09T12:58:05.528Z,8.60
2022-09-09T13:00:12.239Z,8.60
2022-09-09T13:02:21.469Z,7.90
2022-09-09T13:04:24.209Z,7.17
2022-09-09T13:06:29.282Z,6.93
2022-09-09T13:08:32.176Z,7.30
2022-09-09T13:10:52.409Z,7.30
2022-09-09T13:12:59.333Z,7.13
2022-09-09T13:15:03.321Z,7.90
2022-09-09T13:17:06.680Z,6.67
2022-09-09T13:19:10.437Z,7.07
2022-09-09T13:21:13.184Z,7.07
2022-09-09T13:23:15.793Z,7.57
2022-09-09T13:25:21.198Z,6.57
2022-09-09T13:27:28.719Z,6.80
2022-09-09T13:29:31.462Z,5.70
2022-09-09T13:31:35.761Z,5.57
2022-09-09T13:33:39.077Z,6.73
2022-09-09T13:35:48.196Z,8.33
2022-09-09T13:37:50.785Z,5.50
2022-09-09T13:39:54.617Z,6.20
2022-09-09T13:41:58.122Z,5.43
2022-09-09T13:44:02.111Z,5.47
2022-09-09T13:46:06.382Z,5.50
2022-09-09T13:48:11.498Z,7.03
2022-09-09T13:50:21.879Z,5.73
2022-09-09T13:52:24.445Z,4.80
2022-09-09T13:54:27.021Z,5.20
2022-09-09T13:56:30.248Z,6.20
2022-09-09T13:58:32.864Z,5.40
2022-09-09T14:00:37.320Z,5.60
2022-09-09T14:02:40.361Z,5.13
2022-09-09T14:04:43.043Z,5.13
2022-09-09T14:06:45.586Z,5.10
2022-09-09T14:08:49.557Z,5.50
2022-09-09T14:10:52.227Z,6.37
2022-09-09T14:12:54.830Z,4.60
2022-09-09T14:14:57.765Z,4.90
2022-09-09T14:17:06.239Z,4.60
2022-09-09T14:19:10.517Z,5.33
2022-09-09T14:21:13.789Z,5.20
2022-09-09T14:23:17.803Z,5.97
2022-09-09T14:25:20.404Z,5.43
2022-09-09T14:27:23.004Z,6.13
2022-09-09T14:29:27.611Z,6.87
2022-09-09T14:31:30.693Z,5.60
2022-09-09T14:33:35.542Z,5.57
2022-09-09T14:35:38.161Z,5.80
2022-09-09T14:37:41.127Z,5.70
2022-09-09T14:39:45.035Z,5.50
2022-09-09T14:41:47.815Z,7.60
2022-09-09T14:43:50.488Z,5.27
2022-09-09T14:45:53.266Z,5.30
2022-09-09T14:47:56.625Z,5.27
2022-09-09T14:50:01.917Z,5.30
2022-09-09T14:52:07.522Z,4.87
2022-09-09T14:54:10.105Z,5.53
2022-09-09T14:56:13.750Z,5.07
2022-09-09T14:58:16.331Z,8.73
2022-09-09T15:00:19.114Z,8.93
2022-09-09T15:02:21.772Z,5.70
2022-09-09T15:04:24.937Z,5.77
2022-09-09T15:06:30.090Z,5.80
2022-09-09T15:08:32.650Z,6.30
2022-09-09T15:10:35.224Z,5.77
2022-09-09T15:12:39.440Z,5.40
2022-09-09T15:14:42.078Z,5.57
2022-09-09T15:16:44.712Z,5.10
2022-09-09T15:18:47.682Z,5.07
2022-09-09T15:20:50.800Z,5.77
2022-09-09T15:22:54.663Z,4.83
2022-09-09T15:24:57.229Z,4.80
2022-09-09T15:26:59.892Z,5.10
2022-09-09T15:29:09.487Z,4.60
2022-09-09T15:31:14.109Z,5.20
2022-09-09T15:33:16.781Z,5.17
2022-09-09T15:35:19.360Z,5.20
2022-09-09T15:37:22.307Z,4.93
2022-09-09T15:39:26.133Z,5.40
2022-09-09T15:41:32.391Z,5.17
2022-09-09T15:43:35.006Z,5.57
2022-09-09T15:45:38.149Z,4.70
2022-09-09T15:47:40.727Z,4.90
2022-09-09T15:49:43.323Z,4.40
2022-09-09T15:51:47.098Z,5.40
2022-09-09T15:53:50.059Z,5.20
2022-09-09T15:55:56.651Z,5.07
2022-09-09T15:57:59.220Z,5.13
2022-09-09T16:00:01.889Z,5.00
2022-09-09T16:02:06.164Z,5.40
2022-09-09T16:04:08.840Z,4.60
2022-09-09T16:06:11.537Z,5.37
2022-09-09T16:08:14.168Z,6.10
2022-09-09T16:10:17.303Z,4.73
2022-09-09T16:12:21.155Z,4.60
2022-09-09T16:14:23.834Z,4.77
2022-09-09T16:16:28.309Z,4.83
2022-09-09T16:18:35.925Z,4.60
2022-09-09T16:20:38.474Z,5.17
2022-09-09T16:22:41.044Z,4.83
2022-09-09T16:24:45.335Z,4.47
2022-09-09T16:26:48.716Z,4.40
2022-09-09T16:28:55.077Z,4.67
2022-09-09T16:30:59.199Z,4.30
2022-09-09T16:33:02.242Z,4.73
2022-09-09T16:35:05.687Z,4.30
2022-09-09T16:37:08.522Z,4.80
2022-09-09T16:39:12.118Z,4.80
2022-09-09T16:41:16.115Z,4.53
2022-09-09T16:43:19.986Z,3.90
2022-09-09T16:45:23.950Z,4.20
2022-09-09T16:47:26.563Z,4.50
2022-09-09T16:49:29.741Z,4.43
2022-09-09T16:51:33.307Z,4.30
2022-09-09T16:53:35.970Z,4.50
2022-09-09T16:55:41.494Z,3.93
2022-09-09T16:57:44.535Z,4.10
2022-09-09T16:59:47.085Z,3.90
2022-09-09T17:01:51.865Z,3.50
2022-09-09T17:04:00.087Z,4.97
2022-09-09T17:06:04.462Z,3.77
2022-09-09T17:08:07.086Z,4.33
2022-09-09T17:10:10.359Z,4.07
2022-09-09T17:12:13.176Z,3.63
2022-09-09T17:14:16.911Z,4.13
2022-09-09T17:16:21.187Z,3.97
2022-09-09T17:18:27.380Z,3.83
2022-09-09T17:20:45.120Z,4.03
2022-09-09T17:22:49.848Z,4.17
2022-09-09T17:24:52.514Z,4.07
2022-09-09T17:26:56.201Z,3.77
2022-09-09T17:29:00.049Z,3.90
2022-09-09T17:31:03.874Z,4.30
2022-09-09T17:33:07.828Z,4.03
2022-09-09T17:35:12.370Z,3.80
2022-09-09T17:37:14.920Z,4.03
2022-09-09T17:39:17.524Z,3.93
2022-09-09T17:41:21.903Z,4.37
2022-09-09T17:43:24.521Z,4.03
2022-09-09T17:45:28.202Z,5.47
2022-09-09T17:47:31.796Z,4.10
2022-09-09T17:49:34.931Z,4.00
2022-09-09T17:51:38.800Z,5.30
2022-09-09T17:53:42.580Z,4.73
2022-09-09T17:55:47.752Z,5.10
2022-09-09T17:57:52.750Z,4.37
2022-09-09T17:59:55.347Z,4.80
2022-09-09T18:01:58.248Z,4.83
2022-09-09T18:04:02.823Z,5.50
2022-09-09T18:06:06.376Z,5.37
2022-09-09T18:08:10.221Z,4.73
2022-09-09T18:10:13.322Z,5.50
2022-09-09T18:12:15.991Z,6.47
2022-09-09T18:14:21.802Z,5.37
2022-09-09T18:16:26.306Z,5.30
2022-09-09T18:18:29.015Z,6.80
2022-09-09T18:20:32.021Z,6.10
2022-09-09T18:22:34.619Z,5.70
2022-09-09T18:24:38.825Z,6.50
2022-09-09T18:26:41.634Z,6.03
2022-09-09T18:28:45.025Z,6.83
2022-09-09T18:30:49.143Z,5.90
2022-09-09T18:32:52.990Z,5.77
2022-09-09T18:34:59.056Z,5.90
2022-09-09T18:37:02.085Z,5.63
2022-09-09T18:39:05.014Z,6.57
2022-09-09T18:41:15.866Z,5.53
2022-09-09T18:43:18.646Z,5.93
2022-09-09T18:45:22.596Z,6.63
2022-09-09T18:47:25.546Z,6.23
2022-09-09T18:49:28.302Z,8.07
2022-09-09T18:51:31.101Z,7.20
2022-09-09T18:53:34.667Z,6.23
2022-09-09T18:55:37.745Z,7.40
2022-09-09T18:57:41.752Z,6.40
2022-09-09T18:59:44.397Z,7.33
2022-09-09T19:01:47.694Z,8.00
2022-09-09T19:03:50.329Z,8.53
2022-09-09T19:05:52.885Z,6.00
2022-09-09T19:07:55.872Z,6.67
2022-09-09T19:10:00.925Z,6.40
2022-09-09T19:12:03.954Z,6.50
2022-09-09T19:14:10.473Z,9.17
2022-09-09T19:16:14.043Z,9.30
2022-09-09T19:18:20.896Z,6.60
2022-09-09T19:20:24.545Z,7.60
2022-09-09T19:22:27.152Z,7.00
2022-09-09T19:24:30.736Z,7.00
2022-09-09T19:26:40.304Z,6.17
2022-09-09T19:28:43.665Z,8.73
2022-09-09T19:30:50.578Z,7.53
2022-09-09T19:32:54.211Z,9.47
2022-09-09T19:34:57.316Z,7.80
2022-09-09T19:37:00.100Z,7.30
2022-09-09T19:39:03.236Z,6.67
2022-09-09T19:41:06.578Z,7.70
2022-09-09T19:43:09.595Z,7.33
2022-09-09T19:45:15.219Z,7.17
2022-09-09T19:47:19.402Z,10.00
2022-09-09T19:49:22.088Z,7.50
2022-09-09T19:51:25.470Z,8.33
2022-09-09T19:53:28.023Z,9.77
2022-09-09T19:55:31.031Z,7.40
2022-09-09T19:57:34.167Z,8.10
2022-09-09T19:59:37.063Z,7.33
2022-09-09T20:01:40.924Z,7.90
2022-09-09T20:03:46.114Z,12.53
2022-09-09T20:05:49.843Z,8.70
2022-09-09T20:07:53.001Z,7.50
2022-09-09T20:09:55.584Z,7.93
2022-09-09T20:11:59.038Z,8.43
2022-09-09T20:14:02.218Z,6.70
2022-09-09T20:16:06.200Z,6.43
2022-09-09T20:18:08.775Z,8.50
2022-09-09T20:20:12.913Z,7.70
2022-09-09T20:22:18.171Z,8.03
2022-09-09T20:24:22.826Z,6.87
2022-09-09T20:26:26.285Z,7.90
2022-09-09T20:28:29.694Z,7.50
2022-09-09T20:30:38.628Z,7.23
2022-09-09T20:32:41.965Z,9.40
2022-09-09T20:34:48.377Z,7.07
2022-09-09T20:37:02.622Z,7.40
2022-09-09T20:39:07.233Z,7.13
2022-09-09T20:41:24.333Z,6.83
2022-09-09T20:43:27.148Z,6.30
2022-09-09T20:45:30.572Z,6.50
2022-09-09T20:47:33.373Z,7.73
2022-09-09T20:49:36.321Z,7.70
2022-09-09T20:51:39.053Z,6.53
2022-09-09T20:53:42.969Z,7.67
2022-09-09T20:55:50.650Z,6.87
2022-09-09T20:57:53.227Z,7.47
2022-09-09T20:59:56.244Z,6.83
2022-09-09T21:02:00.824Z,7.53
2022-09-09T21:04:03.693Z,7.00
2022-09-09T21:06:06.888Z,7.53
2022-09-09T21:08:09.812Z,8.10
2022-09-09T21:10:13.941Z,7.50
2022-09-09T21:12:16.910Z,7.10
2022-09-09T21:14:19.543Z,6.63
2022-09-09T21:16:22.179Z,5.97
2022-09-09T21:18:24.788Z,6.70
2022-09-09T21:20:27.481Z,8.10
2022-09-09T21:22:32.159Z,8.77
2022-09-09T21:24:36.323Z,6.43
2022-09-09T21:26:40.424Z,6.30
2022-09-09T21:28:45.688Z,6.33
2022-09-09T21:30:50.085Z,6.50
2022-09-09T21:32:52.719Z,6.80
2022-09-09T21:34:56.935Z,7.00
2022-09-09T21:36:59.525Z,6.20
2022-09-09T21:39:02.473Z,6.53
2022-09-09T21:41:05.492Z,6.40
2022-09-09T21:43:11.441Z,7.10
2022-09-09T21:45:14.717Z,6.97
2022-09-09T21:47:17.903Z,6.20
2022-09-09T21:49:20.581Z,6.20
2022-09-09T21:51:23.365Z,6.13
2022-09-09T21:53:28.627Z,6.30
2022-09-09T21:55:34.320Z,6.70
2022-09-09T21:57:38.119Z,6.63
2022-09-09T21:59:42.141Z,6.50
2022-09-09T22:01:44.858Z,6.50
2022-09-09T22:03:47.777Z,6.50
2022-09-09T22:05:53.806Z,6.17
2022-09-09T22:07:56.760Z,6.30
2022-09-09T22:09:59.486Z,6.17
2022-09-09T22:12:02.585Z,6.57
2022-09-09T22:14:05.170Z,6.20
2022-09-09T22:16:10.315Z,5.93
2022-09-09T22:18:14.090Z,6.13
2022-09-09T22:20:17.155Z,6.57
2022-09-09T22:22:19.826Z,6.20
2022-09-09T22:24:22.601Z,5.90
2022-09-09T22:26:25.644Z,6.20
2022-09-09T22:28:29.875Z,7.90
2022-09-09T22:30:32.498Z,6.10
2022-09-09T22:32:36.374Z,6.13
2022-09-09T22:34:38.988Z,5.60
2022-09-09T22:36:42.027Z,5.73
2022-09-09T22:38:44.774Z,5.77
2022-09-09T22:40:47.916Z,6.13
2022-09-09T22:42:52.684Z,6.30
2022-09-09T22:44:56.081Z,5.77
2022-09-09T22:46:58.651Z,6.10
2022-09-09T22:49:05.118Z,5.83
2022-09-09T22:51:08.880Z,6.47
2022-09-09T22:53:14.102Z,5.93
2022-09-09T22:55:16.760Z,6.30
2022-09-09T22:57:19.421Z,6.00
2022-09-09T22:59:23.476Z,5.50
2022-09-09T23:01:33.313Z,5.27
2022-09-09T23:03:36.019Z,5.40
2022-09-09T23:05:40.570Z,6.43
2022-09-09T23:07:43.397Z,6.10
2022-09-09T23:09:47.591Z,6.47
2022-09-09T23:11:50.152Z,5.77
2022-09-09T23:13:53.422Z,6.37
2022-09-09T23:15:56.037Z,5.40
2022-09-09T23:17:59.041Z,5.73
2022-09-09T23:20:03.124Z,5.67
2022-09-09T23:22:07.175Z,5.27
2022-09-09T23:24:11.504Z,5.93
2022-09-09T23:26:19.047Z,5.77
2022-09-09T23:28:22.218Z,6.07
2022-09-09T23:30:25.446Z,5.47
2022-09-09T23:32:28.012Z,6.00
2022-09-09T23:34:31.952Z,6.13
2022-09-09T23:36:34.761Z,6.20
2022-09-09T23:38:39.392Z,5.50
2022-09-09T23:40:42.059Z,5.00
2022-09-09T23:42:47.534Z,5.40
2022-09-09T23:44:50.782Z,5.20
2022-09-09T23:46:53.362Z,6.20
2022-09-09T23:48:57.392Z,5.67
2022-09-09T23:51:00.649Z,5.13
2022-09-09T23:53:03.196Z,5.60
2022-09-09T23:55:08.863Z,5.67
2022-09-09T23:57:11.782Z,4.70
2022-09-09T23:59:14.715Z,5.23
